Cornwall, United Kingdom
Current Conditions -  °F | °C
As of 6:50 PM on Sunday 23 Nov 2014 (Local Time) from EGHQ Reporting Station
Few Clouds Few Clouds  
Wind Chill: 43°   Ceiling: Unl
Heat Index: 43°   Visibility: 6mi
Dew Point: 36°   Wind: 3mph
Humidity: 76%   Direction: 20°NNE
Pressure: 30.15"   Gusts: NA
Location:  50.5°N, 4.8°W
Report Text: EGHQ 231850Z 02003KT 9999 FEW031 06/02 Q1021
Loading
Personal Weather Stations






























Interactive Weather Map New forecast layout! Learn more

10-Day Weather Forecast

Advertisements
Track Severe Weather on mobile